Tokyo International Airport
RJTT : now visible

Airfield :











YOU CAN JOIN US ON...

 
LOGIN :

Register | Disclaimer

   EN    FR    IT 

 









Legend :    VFR   Marginal VFR   IFR   Intensive IFR   Very Intensive IFR
Visi :
Ceiling :
>= 8 km
>= 3000ft
5 to 8 km
1000 to 3000 ft
1500m to 5 km
500 to 1000 ft
800 to 1500m
200 to 500 ft
< 800m
< 200 ft
Symbols :   Thunderstorms  Fog  Heavy snow  Heavy precipitations  Wind > 20 kt






- Airport Elevation : 35 ft
- IATA code : HND


RJTT - Tokyo International

CURRENT METAR :
  • 231900Z 28003KT 9999 FEW020 BKN/// 19/17 Q1006 NOSIG RMK 1CU020 A2972

EXPIRED METARs :
  • 231830Z 18003KT 9999 FEW020 BKN/// 20/17 Q1006 BECMG TL1900 27005KT RMK 1CU020 A2972
  • 231800Z 19004KT 9999 FEW020 BKN/// 20/17 Q1006 BECMG TL1830 28005KT
  • 231730Z 19006KT 9999 FEW020 BKN/// 20/17 Q1007 BECMG TL1830 27004KT
  • 231700Z 19006KT 9999 FEW020 BKN/// 20/17 Q1007 BECMG TL1800 27005KT RMK 1CU020 A2975
  • 231630Z 18006KT CAVOK 20/18 Q1007 BECMG 27006KT RMK A2976
  • 231600Z 18006KT CAVOK 20/18 Q1008 NOSIG RMK A2977
  • 231530Z 19006KT CAVOK 21/18 Q1008 NOSIG RMK A2979
  • 231500Z 19008KT CAVOK 21/18 Q1008 NOSIG RMK A2979
  • 231430Z 19008KT CAVOK 22/17 Q1009 NOSIG RMK A2980

TAF TAF RJTT
Valid from the 23 at 18:00 until the 25 at 00:00 UTC


231705Z 2318/2500 36006KT 9999 FEW020
BECMG 2323/2401 12006KT
BECMG 2404/2406 19010KT
BECMG 2412/2415 36014KT
RJJJ FIR / Asia



MET'MAP, your aeronautical weather chart ! - Copyright ORBIFLY December 2007 - Disclaimer

ORBIFLY MET'MAP TEAM :

Programming & Development : Alexandra Zaïnal
Original concept : Baudouin d'Aumeries
Technical & hardware support : Manuel Goepfert
Assistance : Marc-Olivier Méhu




SOURCES & CREDITS :

   NOAA       Earth
Advisory